createdAt,value
2018-09-03T00:00:41.030Z,54.28
2018-09-03T00:01:45.590Z,54.91
2018-09-03T00:02:49.735Z,54.32
2018-09-03T00:03:53.887Z,54.31
2018-09-03T00:04:58.142Z,54.73
2018-09-03T00:06:02.339Z,54.68
2018-09-03T00:07:06.477Z,55.12
2018-09-03T00:08:10.651Z,55.02
2018-09-03T00:09:14.782Z,55.01
2018-09-03T00:10:19.326Z,55.57
2018-09-03T00:11:23.575Z,55.06
2018-09-03T00:12:29.310Z,55.48
2018-09-03T00:13:33.623Z,55.31
2018-09-03T00:14:37.775Z,55.41
2018-09-03T00:15:41.938Z,55.01
2018-09-03T00:16:46.118Z,55.56
2018-09-03T00:17:50.382Z,55.43
2018-09-03T00:18:54.545Z,55.53
2018-09-03T00:19:58.665Z,55.86
2018-09-03T00:21:02.853Z,56.15
2018-09-03T00:22:07.413Z,55.40
2018-09-03T00:23:11.572Z,55.64
2018-09-03T00:24:15.799Z,56.10
2018-09-03T00:25:19.926Z,55.95
2018-09-03T00:26:24.094Z,55.89
2018-09-03T00:27:28.231Z,56.03
2018-09-03T00:28:32.393Z,56.15
2018-09-03T00:29:36.818Z,56.46
2018-09-03T00:30:41.153Z,56.75
2018-09-03T00:31:50.430Z,56.64
2018-09-03T00:32:59.979Z,56.24
2018-09-03T00:34:09.232Z,56.41
2018-09-03T00:35:18.493Z,56.92
2018-09-03T00:36:27.903Z,56.34
2018-09-03T00:37:37.471Z,56.63
2018-09-03T00:38:46.863Z,57.10
2018-09-03T00:39:56.326Z,56.89
2018-09-03T00:41:05.726Z,57.31
2018-09-03T00:42:15.067Z,56.66
2018-09-03T00:43:24.621Z,56.86
2018-09-03T00:44:33.930Z,57.05
2018-09-03T00:45:43.182Z,57.58
2018-09-03T00:46:52.495Z,57.57
2018-09-03T00:47:56.626Z,57.54
2018-09-03T00:49:00.804Z,57.56
2018-09-03T00:50:05.731Z,57.62
2018-09-03T00:51:09.994Z,57.73
2018-09-03T00:52:14.142Z,56.93
2018-09-03T00:53:18.325Z,57.17
2018-09-03T00:54:22.509Z,57.77
2018-09-03T00:55:26.655Z,58.07
2018-09-03T00:56:30.819Z,57.57
2018-09-03T00:57:34.963Z,57.29
2018-09-03T00:58:39.122Z,58.04
2018-09-03T00:59:43.286Z,57.67
2018-09-03T01:00:47.499Z,57.44
2018-09-03T01:01:51.633Z,57.46
2018-09-03T01:02:55.766Z,57.65
2018-09-03T01:03:59.899Z,57.67
2018-09-03T01:05:04.116Z,58.04
2018-09-03T01:06:08.299Z,57.71
2018-09-03T01:07:12.446Z,58.39
2018-09-03T01:08:16.611Z,57.78
2018-09-03T01:09:20.831Z,57.65
2018-09-03T01:10:25.017Z,57.82
2018-09-03T01:11:29.166Z,57.81
2018-09-03T01:12:33.584Z,57.80
2018-09-03T01:13:37.830Z,57.74
2018-09-03T01:14:42.242Z,57.54
2018-09-03T01:15:46.520Z,58.06
2018-09-03T01:16:50.735Z,58.58
2018-09-03T01:17:54.869Z,58.23
2018-09-03T01:18:59.304Z,57.59
2018-09-03T01:20:03.534Z,57.57
2018-09-03T01:21:07.980Z,57.75
2018-09-03T01:22:12.415Z,58.38
2018-09-03T01:23:16.605Z,57.63
2018-09-03T01:24:20.808Z,57.88
2018-09-03T01:25:25.290Z,58.29
2018-09-03T01:26:29.468Z,58.32
2018-09-03T01:27:33.695Z,58.18
2018-09-03T01:28:37.932Z,58.76
2018-09-03T01:29:42.564Z,58.24
2018-09-03T01:30:46.746Z,58.04
2018-09-03T01:31:54.924Z,58.09
2018-09-03T01:32:59.063Z,58.87
2018-09-03T01:34:03.243Z,58.47
2018-09-03T01:35:07.422Z,58.25
2018-09-03T01:36:11.595Z,58.24
2018-09-03T01:37:15.857Z,58.22
2018-09-03T01:38:19.996Z,58.70
2018-09-03T01:39:24.189Z,58.45
2018-09-03T01:40:28.592Z,58.04
2018-09-03T01:41:32.725Z,58.45
2018-09-03T01:42:36.894Z,58.35
2018-09-03T01:43:41.060Z,58.34
2018-09-03T01:44:45.403Z,57.83
2018-09-03T01:45:49.605Z,58.34
2018-09-03T01:46:53.732Z,58.51
2018-09-03T01:47:57.933Z,58.52
2018-09-03T01:49:02.121Z,58.01
2018-09-03T01:50:06.313Z,58.46
2018-09-03T01:51:10.487Z,58.34
2018-09-03T01:52:14.650Z,58.45
2018-09-03T01:53:18.862Z,57.73
2018-09-03T01:54:23.049Z,58.50
2018-09-03T01:55:27.223Z,58.29
2018-09-03T01:56:31.388Z,58.22
2018-09-03T01:57:35.541Z,58.06
2018-09-03T01:58:39.771Z,58.06
2018-09-03T01:59:43.926Z,57.81
2018-09-03T02:00:48.138Z,58.53
2018-09-03T02:01:52.744Z,58.04
2018-09-03T02:02:56.881Z,58.54
2018-09-03T02:04:01.165Z,58.05
2018-09-03T02:05:05.711Z,58.50
2018-09-03T02:06:09.883Z,58.53
2018-09-03T02:07:14.227Z,58.25
2018-09-03T02:08:18.606Z,58.14
2018-09-03T02:09:22.882Z,57.81
2018-09-03T02:10:27.076Z,58.51
2018-09-03T02:11:31.307Z,58.38
2018-09-03T02:12:35.482Z,58.44
2018-09-03T02:13:39.700Z,58.38
2018-09-03T02:14:44.675Z,57.94
2018-09-03T02:15:48.862Z,58.04
2018-09-03T02:16:53.028Z,58.10
2018-09-03T02:17:57.303Z,58.07
2018-09-03T02:19:01.676Z,58.66
2018-09-03T02:20:08.166Z,58.12
2018-09-03T02:21:12.362Z,58.61
2018-09-03T02:22:16.580Z,58.60
2018-09-03T02:23:20.717Z,57.95
2018-09-03T02:24:25.096Z,58.36
2018-09-03T02:25:29.286Z,58.53
2018-09-03T02:26:33.516Z,58.43
2018-09-03T02:27:37.916Z,58.39
2018-09-03T02:28:42.088Z,57.77
2018-09-03T02:29:46.614Z,58.07
2018-09-03T02:30:50.865Z,58.71
2018-09-03T02:31:55.041Z,58.55
2018-09-03T02:32:59.331Z,58.26
2018-09-03T02:34:03.759Z,58.22
2018-09-03T02:35:08.136Z,58.25
2018-09-03T02:36:12.373Z,58.33
2018-09-03T02:37:16.542Z,58.00
2018-09-03T02:38:20.759Z,58.27
2018-09-03T02:39:25.119Z,58.44
2018-09-03T02:40:29.295Z,58.44
2018-09-03T02:41:33.447Z,57.93
2018-09-03T02:42:37.749Z,58.37
2018-09-03T02:43:41.877Z,57.96
2018-09-03T02:44:46.165Z,58.32
2018-09-03T02:45:50.287Z,58.21
2018-09-03T02:46:54.530Z,58.25
2018-09-03T02:47:58.695Z,58.28
2018-09-03T02:49:02.835Z,58.18
2018-09-03T02:50:07.509Z,58.83
2018-09-03T02:51:11.648Z,58.97
2018-09-03T02:52:15.860Z,58.90
2018-09-03T02:53:20.178Z,58.76
2018-09-03T02:54:24.331Z,58.98
2018-09-03T02:55:28.502Z,58.86
2018-09-03T02:56:32.638Z,58.45
2018-09-03T02:57:36.886Z,58.88
2018-09-03T02:58:41.021Z,58.73
2018-09-03T02:59:45.200Z,59.29
2018-09-03T03:00:49.399Z,58.98
2018-09-03T03:01:53.733Z,58.87
2018-09-03T03:02:58.918Z,58.78
2018-09-03T03:04:03.157Z,58.59
2018-09-03T03:05:07.345Z,58.87
2018-09-03T03:06:11.492Z,59.02
2018-09-03T03:07:15.660Z,58.77
2018-09-03T03:08:19.819Z,58.93
2018-09-03T03:09:23.966Z,58.52
2018-09-03T03:10:28.139Z,58.49
2018-09-03T03:11:32.309Z,58.71
2018-09-03T03:12:36.479Z,58.90
2018-09-03T03:13:40.680Z,58.83
2018-09-03T03:14:45.002Z,58.64
2018-09-03T03:15:49.151Z,58.36
2018-09-03T03:16:53.325Z,59.19
2018-09-03T03:17:57.707Z,59.20
2018-09-03T03:19:01.919Z,58.77
2018-09-03T03:20:06.811Z,59.02
2018-09-03T03:21:10.983Z,59.05
2018-09-03T03:22:15.172Z,58.61
2018-09-03T03:23:19.448Z,59.38
2018-09-03T03:24:23.755Z,58.71
2018-09-03T03:25:27.936Z,59.10
2018-09-03T03:26:32.098Z,59.40
2018-09-03T03:27:36.258Z,59.35
2018-09-03T03:28:40.471Z,59.67
2018-09-03T03:29:44.935Z,59.26
2018-09-03T03:30:49.446Z,59.77
2018-09-03T03:31:53.668Z,58.88
2018-09-03T03:32:57.813Z,59.85
2018-09-03T03:34:02.011Z,59.20
2018-09-03T03:35:07.425Z,59.42
2018-09-03T03:36:11.589Z,59.31
2018-09-03T03:37:15.783Z,59.38
2018-09-03T03:38:19.942Z,59.88
2018-09-03T03:39:24.138Z,59.35
2018-09-03T03:40:28.306Z,59.89
2018-09-03T03:41:32.482Z,59.64
2018-09-03T03:42:36.661Z,59.85
2018-09-03T03:43:40.857Z,59.47
2018-09-03T03:44:45.054Z,59.57
2018-09-03T03:45:49.292Z,59.95
2018-09-03T03:46:53.451Z,59.58
2018-09-03T03:47:57.615Z,59.40
2018-09-03T03:49:01.805Z,59.37
2018-09-03T03:50:06.394Z,59.78
2018-09-03T03:51:10.573Z,59.55
2018-09-03T03:52:14.733Z,59.36
2018-09-03T03:53:18.931Z,59.11
2018-09-03T03:54:23.120Z,58.87
2018-09-03T03:55:27.279Z,59.14
2018-09-03T03:56:31.453Z,59.66
2018-09-03T03:57:36.015Z,59.55
2018-09-03T03:58:40.204Z,59.04
2018-09-03T03:59:44.386Z,59.60
2018-09-03T04:00:48.572Z,59.31
2018-09-03T04:01:52.818Z,58.97
2018-09-03T04:02:57.022Z,59.08
2018-09-03T04:04:01.188Z,59.37
2018-09-03T04:05:05.613Z,58.74
2018-09-03T04:06:09.958Z,59.00
2018-09-03T04:07:14.138Z,58.69
2018-09-03T04:08:18.307Z,59.01
2018-09-03T04:09:22.492Z,59.44
2018-09-03T04:10:26.726Z,59.16
2018-09-03T04:11:30.840Z,58.61
2018-09-03T04:12:35.048Z,58.72
2018-09-03T04:13:39.205Z,58.65
2018-09-03T04:14:43.366Z,59.11
2018-09-03T04:15:47.649Z,59.12
2018-09-03T04:16:51.853Z,58.94
2018-09-03T04:17:56.048Z,58.66
2018-09-03T04:19:00.325Z,58.71
2018-09-03T04:20:05.164Z,58.92
2018-09-03T04:21:09.460Z,58.88
2018-09-03T04:22:13.700Z,59.26
2018-09-03T04:23:18.312Z,59.09
2018-09-03T04:24:22.246Z,59.65
2018-09-03T04:25:26.452Z,58.93
2018-09-03T04:26:30.580Z,59.70
2018-09-03T04:27:34.719Z,58.94
2018-09-03T04:28:38.924Z,59.18
2018-09-03T04:29:43.095Z,59.09
2018-09-03T04:30:47.343Z,59.17
2018-09-03T04:31:51.870Z,59.37
2018-09-03T04:32:56.187Z,59.48
2018-09-03T04:34:00.531Z,59.09
2018-09-03T04:35:04.698Z,59.76
2018-09-03T04:36:09.086Z,59.24
2018-09-03T04:37:13.455Z,59.57
2018-09-03T04:38:17.595Z,59.32
2018-09-03T04:39:22.007Z,59.65
2018-09-03T04:40:26.520Z,59.98
2018-09-03T04:41:30.669Z,60.01
2018-09-03T04:42:34.985Z,59.46
2018-09-03T04:43:39.319Z,59.73
2018-09-03T04:44:43.751Z,59.79
2018-09-03T04:45:47.866Z,60.00
2018-09-03T04:46:52.161Z,59.69
2018-09-03T04:47:56.328Z,59.71
2018-09-03T04:49:00.754Z,59.73
2018-09-03T04:50:04.945Z,59.70
2018-09-03T04:51:09.149Z,59.46
2018-09-03T04:52:13.492Z,59.48
2018-09-03T04:53:17.640Z,59.63
2018-09-03T04:54:21.831Z,59.92
2018-09-03T04:55:26.147Z,60.05
2018-09-03T04:56:30.312Z,59.76
2018-09-03T04:57:34.480Z,60.26
2018-09-03T04:58:38.622Z,59.75
2018-09-03T04:59:42.767Z,60.17
2018-09-03T05:00:47.133Z,60.07
2018-09-03T05:01:51.292Z,60.10
2018-09-03T05:02:55.543Z,59.81
2018-09-03T05:03:59.730Z,60.00
2018-09-03T05:05:03.988Z,59.56
2018-09-03T05:06:08.202Z,59.69
2018-09-03T05:07:12.357Z,59.30
2018-09-03T05:08:16.530Z,59.74
2018-09-03T05:09:20.715Z,58.94
2018-09-03T05:10:25.084Z,59.55
2018-09-03T05:11:29.285Z,59.21
2018-09-03T05:12:33.700Z,59.23
2018-09-03T05:13:37.867Z,59.63
2018-09-03T05:14:42.031Z,59.33
2018-09-03T05:15:46.207Z,59.53
2018-09-03T05:16:50.628Z,59.94
2018-09-03T05:17:54.824Z,59.93
2018-09-03T05:18:58.974Z,59.97
2018-09-03T05:20:03.139Z,60.63
2018-09-03T05:21:07.287Z,60.72
2018-09-03T05:22:11.516Z,60.43
2018-09-03T05:23:15.676Z,60.00
2018-09-03T05:24:19.818Z,60.01
2018-09-03T05:25:23.957Z,60.35
2018-09-03T05:26:28.672Z,60.13
2018-09-03T05:27:32.866Z,60.42
2018-09-03T05:28:37.033Z,60.49
2018-09-03T05:29:41.388Z,60.68
2018-09-03T05:30:45.695Z,60.54
2018-09-03T05:31:49.915Z,60.27
2018-09-03T05:32:54.239Z,60.72
2018-09-03T05:33:58.618Z,60.24
2018-09-03T05:35:02.782Z,60.25
2018-09-03T05:36:07.091Z,60.24
2018-09-03T05:37:11.255Z,60.36
2018-09-03T05:38:15.476Z,60.19
2018-09-03T05:39:19.789Z,60.27
2018-09-03T05:40:24.032Z,60.50
2018-09-03T05:41:28.190Z,60.55
2018-09-03T05:42:32.464Z,59.89
2018-09-03T05:43:36.863Z,59.58
2018-09-03T05:44:40.836Z,59.80
2018-09-03T05:45:45.354Z,60.23
2018-09-03T05:46:49.515Z,59.45
2018-09-03T05:47:53.723Z,60.11
2018-09-03T05:48:57.965Z,59.84
2018-09-03T05:50:02.300Z,59.81
2018-09-03T05:51:06.990Z,59.52
2018-09-03T05:52:11.157Z,59.04
2018-09-03T05:53:15.370Z,58.88
2018-09-03T05:54:19.603Z,58.72
2018-09-03T05:55:23.967Z,59.21
2018-09-03T05:56:28.210Z,59.02
2018-09-03T05:57:32.399Z,59.25
2018-09-03T05:58:36.666Z,58.85
2018-09-03T05:59:40.978Z,59.09
2018-09-03T06:00:45.142Z,59.05
2018-09-03T06:01:49.340Z,58.27
2018-09-03T06:02:53.760Z,58.76
2018-09-03T06:03:57.946Z,58.44
2018-09-03T06:05:02.254Z,58.42
2018-09-03T06:06:06.469Z,58.47
2018-09-03T06:07:10.718Z,58.15
2018-09-03T06:08:14.881Z,58.52
2018-09-03T06:09:19.129Z,58.67
2018-09-03T06:10:23.384Z,58.97
2018-09-03T06:11:27.762Z,58.99
2018-09-03T06:12:32.203Z,58.76
2018-09-03T06:13:36.735Z,58.98
2018-09-03T06:14:41.025Z,58.96
2018-09-03T06:15:45.284Z,58.93
2018-09-03T06:16:49.492Z,58.42
2018-09-03T06:17:53.701Z,58.87
2018-09-03T06:18:57.865Z,58.92
2018-09-03T06:20:02.019Z,58.58
2018-09-03T06:21:06.453Z,58.52
2018-09-03T06:22:10.935Z,58.61
2018-09-03T06:23:15.155Z,58.29
2018-09-03T06:24:19.331Z,58.33
2018-09-03T06:25:23.558Z,58.95
2018-09-03T06:26:27.820Z,58.74
2018-09-03T06:27:31.985Z,58.59
2018-09-03T06:28:36.313Z,59.09
2018-09-03T06:29:40.496Z,58.38
2018-09-03T06:30:44.671Z,58.73
2018-09-03T06:31:48.903Z,58.83
2018-09-03T06:32:53.233Z,59.13
2018-09-03T06:33:57.535Z,58.90
2018-09-03T06:35:01.985Z,58.38
2018-09-03T06:36:06.949Z,59.12
2018-09-03T06:37:11.257Z,58.50
2018-09-03T06:38:15.629Z,58.71
2018-09-03T06:39:19.870Z,58.89
2018-09-03T06:40:24.070Z,58.60
2018-09-03T06:41:28.225Z,58.39
2018-09-03T06:42:32.473Z,58.75
2018-09-03T06:43:36.974Z,58.93
2018-09-03T06:44:41.155Z,57.98
2018-09-03T06:45:45.336Z,58.80
2018-09-03T06:46:49.490Z,58.65
2018-09-03T06:47:53.677Z,57.88
2018-09-03T06:48:57.838Z,58.22
2018-09-03T06:50:02.291Z,58.36
2018-09-03T06:51:06.510Z,58.21
2018-09-03T06:52:10.720Z,57.76
2018-09-03T06:53:14.894Z,58.30
2018-09-03T06:54:19.395Z,58.05
2018-09-03T06:55:23.579Z,58.32
2018-09-03T06:56:27.708Z,58.23
2018-09-03T06:57:31.986Z,57.38
2018-09-03T06:58:36.251Z,58.07
2018-09-03T06:59:40.487Z,58.08
2018-09-03T07:00:44.644Z,57.36
2018-09-03T07:01:48.842Z,57.83
2018-09-03T07:02:53.046Z,57.77
2018-09-03T07:03:57.277Z,58.22
2018-09-03T07:05:01.435Z,57.59
2018-09-03T07:06:06.036Z,57.70
2018-09-03T07:07:10.239Z,58.01
2018-09-03T07:08:14.507Z,57.64
2018-09-03T07:09:18.708Z,57.97
2018-09-03T07:10:23.120Z,57.57
2018-09-03T07:11:27.291Z,57.68
2018-09-03T07:12:31.532Z,57.54
2018-09-03T07:13:35.871Z,57.93
2018-09-03T07:14:40.269Z,57.79
2018-09-03T07:15:44.436Z,58.08
2018-09-03T07:16:48.660Z,57.79
2018-09-03T07:17:52.809Z,57.48
2018-09-03T07:18:56.998Z,57.36
2018-09-03T07:20:01.201Z,57.46
2018-09-03T07:21:05.794Z,57.21
2018-09-03T07:22:09.937Z,57.07
2018-09-03T07:23:14.111Z,57.06
2018-09-03T07:24:18.408Z,57.67
2018-09-03T07:25:22.585Z,57.09
2018-09-03T07:26:27.031Z,57.11
2018-09-03T07:27:31.408Z,57.72
2018-09-03T07:28:35.790Z,56.98
2018-09-03T07:29:40.235Z,57.49
2018-09-03T07:30:44.631Z,57.35
2018-09-03T07:31:48.873Z,57.11
2018-09-03T07:32:53.228Z,57.51
2018-09-03T07:33:57.450Z,57.02
2018-09-03T07:35:01.735Z,57.08
2018-09-03T07:36:06.196Z,57.13
2018-09-03T07:37:10.550Z,57.00
2018-09-03T07:38:14.887Z,56.91
2018-09-03T07:39:19.324Z,56.78
2018-09-03T07:40:23.835Z,56.90
2018-09-03T07:41:28.279Z,57.03
2018-09-03T07:42:32.486Z,57.08
2018-09-03T07:43:36.806Z,57.28
2018-09-03T07:44:41.098Z,56.57
2018-09-03T07:45:45.467Z,56.52
2018-09-03T07:46:49.814Z,56.49
2018-09-03T07:47:54.090Z,57.12
2018-09-03T07:48:58.421Z,56.77
2018-09-03T07:50:02.740Z,57.23
2018-09-03T07:51:07.085Z,57.20
2018-09-03T07:52:11.261Z,57.26
2018-09-03T07:53:15.434Z,57.14
2018-09-03T07:54:19.618Z,56.78
2018-09-03T07:55:23.834Z,57.28
2018-09-03T07:56:28.039Z,56.87
2018-09-03T07:57:32.259Z,56.61
2018-09-03T07:58:36.543Z,56.86
2018-09-03T07:59:40.755Z,56.61
2018-09-03T08:00:44.978Z,56.40
2018-09-03T08:01:49.125Z,56.98
2018-09-03T08:02:53.481Z,56.70
2018-09-03T08:03:57.650Z,56.93
2018-09-03T08:05:01.843Z,57.05
2018-09-03T08:06:06.242Z,57.16
2018-09-03T08:07:10.450Z,57.37
2018-09-03T08:08:14.808Z,56.78
2018-09-03T08:09:19.066Z,57.25
2018-09-03T08:10:23.309Z,57.56
2018-09-03T08:11:27.465Z,57.57
2018-09-03T08:12:31.657Z,58.23
2018-09-03T08:13:38.941Z,58.88
2018-09-03T08:14:43.130Z,59.44
2018-09-03T08:15:47.504Z,59.22
2018-09-03T08:16:51.778Z,59.56
2018-09-03T08:17:55.930Z,60.57
2018-09-03T08:19:00.264Z,60.69
2018-09-03T08:20:04.754Z,60.73
2018-09-03T08:21:08.928Z,61.65
2018-09-03T08:22:13.121Z,61.41
2018-09-03T08:23:17.263Z,62.43
2018-09-03T08:24:21.513Z,61.99
2018-09-03T08:25:25.680Z,62.53
2018-09-03T08:26:30.158Z,62.66
2018-09-03T08:27:34.405Z,62.93
2018-09-03T08:28:38.599Z,63.50
2018-09-03T08:29:42.881Z,63.49
2018-09-03T08:30:47.058Z,63.79
2018-09-03T08:31:51.257Z,64.02
2018-09-03T08:32:55.483Z,64.13
2018-09-03T08:33:59.864Z,63.66
2018-09-03T08:35:04.328Z,63.96
2018-09-03T08:36:08.555Z,64.00
2018-09-03T08:37:12.777Z,63.77
2018-09-03T08:38:17.110Z,63.83
2018-09-03T08:39:21.294Z,63.72
2018-09-03T08:40:25.549Z,64.02
2018-09-03T08:41:29.852Z,63.61
2018-09-03T08:42:34.014Z,63.73
2018-09-03T08:43:38.218Z,64.16
2018-09-03T08:44:42.768Z,64.47
2018-09-03T08:45:46.931Z,63.78
2018-09-03T08:47:57.623Z,63.65
2018-09-03T08:49:01.912Z,63.91
2018-09-03T08:50:06.174Z,63.69
2018-09-03T08:51:10.352Z,63.30
2018-09-03T08:52:14.534Z,63.48
2018-09-03T08:53:18.747Z,63.46
2018-09-03T08:54:22.910Z,64.25
2018-09-03T08:55:27.097Z,63.54
2018-09-03T08:56:31.414Z,63.58
2018-09-03T08:57:35.597Z,63.79
2018-09-03T08:58:39.830Z,63.93
2018-09-03T08:59:44.025Z,63.59
2018-09-03T09:00:48.275Z,63.78
2018-09-03T09:01:52.491Z,63.67
2018-09-03T09:02:56.689Z,63.64
2018-09-03T09:04:00.932Z,64.32
2018-09-03T09:05:05.087Z,63.90
2018-09-03T09:06:09.457Z,64.12
2018-09-03T09:07:13.667Z,63.51
2018-09-03T09:08:17.876Z,64.08
2018-09-03T09:09:22.119Z,63.82
2018-09-03T09:10:26.291Z,64.42
2018-09-03T09:11:30.631Z,64.14
2018-09-03T09:12:35.054Z,63.34
2018-09-03T09:13:39.411Z,63.52
2018-09-03T09:14:43.561Z,62.74
2018-09-03T09:15:48.461Z,62.72
2018-09-03T09:16:52.618Z,62.56
2018-09-03T09:17:56.866Z,62.48
2018-09-03T09:19:01.207Z,62.53
2018-09-03T09:20:05.673Z,62.74
2018-09-03T09:21:09.874Z,62.29
2018-09-03T09:22:14.052Z,62.16
2018-09-03T09:23:18.360Z,62.63
2018-09-03T09:24:22.798Z,61.93
2018-09-03T09:25:26.978Z,62.65
2018-09-03T09:26:31.334Z,61.90
2018-09-03T09:27:35.656Z,62.18
2018-09-03T09:28:39.880Z,62.55
2018-09-03T09:29:44.111Z,62.42
2018-09-03T09:30:48.332Z,62.40
2018-09-03T09:31:52.550Z,62.11
2018-09-03T09:32:56.845Z,61.95
2018-09-03T09:34:01.374Z,61.97
2018-09-03T09:35:05.655Z,62.33
2018-09-03T09:36:09.894Z,62.06
2018-09-03T09:37:14.087Z,62.07
2018-09-03T09:38:18.278Z,61.62
2018-09-03T09:39:22.484Z,61.48
2018-09-03T09:40:26.712Z,61.21
2018-09-03T09:41:33.313Z,61.51
2018-09-03T09:42:39.966Z,60.98
2018-09-03T09:43:44.172Z,61.23
2018-09-03T09:44:48.411Z,61.09
2018-09-03T09:45:52.602Z,61.17
2018-09-03T09:46:56.839Z,61.43
2018-09-03T09:48:01.221Z,60.71
2018-09-03T09:49:05.452Z,60.57
2018-09-03T09:50:09.656Z,60.82
2018-09-03T09:51:13.819Z,61.10
2018-09-03T09:52:17.994Z,60.46
2018-09-03T09:53:22.153Z,61.12
2018-09-03T09:54:26.353Z,60.38
2018-09-03T09:55:30.573Z,60.88
2018-09-03T09:56:34.811Z,60.44
2018-09-03T09:57:39.046Z,60.74
2018-09-03T09:58:43.297Z,60.34
2018-09-03T09:59:47.463Z,60.54
2018-09-03T10:00:56.954Z,60.54
2018-09-03T10:02:01.135Z,60.75
2018-09-03T10:03:05.637Z,59.98
2018-09-03T10:04:09.930Z,60.67
2018-09-03T10:05:14.101Z,60.22
2018-09-03T10:06:18.461Z,60.60
2018-09-03T10:07:22.754Z,60.39
2018-09-03T10:08:26.905Z,60.62
2018-09-03T10:09:31.049Z,60.69
2018-09-03T10:10:35.220Z,60.47
2018-09-03T10:11:39.426Z,60.10
2018-09-03T10:12:43.699Z,60.44
2018-09-03T10:13:47.879Z,60.31
2018-09-03T10:14:52.107Z,60.48
2018-09-03T10:15:56.253Z,60.10
2018-09-03T10:17:00.443Z,59.80
2018-09-03T10:18:04.658Z,59.43
2018-09-03T10:19:08.832Z,59.57
2018-09-03T10:20:13.002Z,59.51
2018-09-03T10:21:17.177Z,59.41
2018-09-03T10:22:21.402Z,59.12
2018-09-03T10:23:25.593Z,59.57
2018-09-03T10:24:29.749Z,59.72
2018-09-03T10:25:33.989Z,59.03
2018-09-03T10:26:38.264Z,59.19
2018-09-03T10:27:42.601Z,59.49
2018-09-03T10:28:46.849Z,59.68
2018-09-03T10:29:51.386Z,59.38
2018-09-03T10:30:55.609Z,59.17
2018-09-03T10:32:00.042Z,59.16
2018-09-03T10:33:04.303Z,59.03
2018-09-03T10:34:08.723Z,59.17
2018-09-03T10:35:12.971Z,58.81
2018-09-03T10:36:17.194Z,58.81
2018-09-03T10:37:21.394Z,58.36
2018-09-03T10:38:25.587Z,58.91
2018-09-03T10:39:29.802Z,58.47
2018-09-03T10:40:33.986Z,58.55
2018-09-03T10:41:38.219Z,57.81
2018-09-03T10:42:42.415Z,58.05
2018-09-03T10:43:46.618Z,57.98
2018-09-03T10:44:50.882Z,57.79
2018-09-03T10:45:55.510Z,58.14
2018-09-03T10:46:59.993Z,57.49
2018-09-03T10:48:04.338Z,57.38
2018-09-03T10:49:08.523Z,57.35
2018-09-03T10:50:12.746Z,57.11
2018-09-03T10:51:16.910Z,57.37
2018-09-03T10:52:21.099Z,57.80
2018-09-03T10:53:25.378Z,57.13
2018-09-03T10:54:29.515Z,57.41
2018-09-03T10:55:33.718Z,57.15
2018-09-03T10:56:37.907Z,57.20
2018-09-03T10:57:42.126Z,57.53
2018-09-03T10:58:46.316Z,57.03
2018-09-03T10:59:50.545Z,57.43
2018-09-03T11:00:54.710Z,57.04
2018-09-03T11:01:58.902Z,57.06
2018-09-03T11:03:03.135Z,56.54
2018-09-03T11:04:07.327Z,56.16
2018-09-03T11:05:11.908Z,56.64
2018-09-03T11:06:16.088Z,56.48
2018-09-03T11:07:20.487Z,56.47
2018-09-03T11:08:24.631Z,55.90
2018-09-03T11:09:28.861Z,56.63
2018-09-03T11:10:33.054Z,56.01
2018-09-03T11:11:37.248Z,56.18
2018-09-03T11:12:41.480Z,56.28
2018-09-03T11:13:45.663Z,56.53
2018-09-03T11:14:49.850Z,56.40
2018-09-03T11:15:54.158Z,56.48
2018-09-03T11:16:58.464Z,55.83
2018-09-03T11:18:02.994Z,56.26
2018-09-03T11:19:07.425Z,56.22
2018-09-03T11:20:15.073Z,56.09
2018-09-03T11:21:19.436Z,56.06
2018-09-03T11:22:23.526Z,55.68
2018-09-03T11:23:27.803Z,55.04
2018-09-03T11:24:31.998Z,55.46
2018-09-03T11:25:36.209Z,54.90
2018-09-03T11:26:40.432Z,55.45
2018-09-03T11:27:44.613Z,55.50
2018-09-03T11:28:48.841Z,55.36
2018-09-03T11:29:52.996Z,55.59
2018-09-03T11:30:57.226Z,55.46
2018-09-03T11:32:01.639Z,55.15
2018-09-03T11:33:05.947Z,55.37
2018-09-03T11:34:10.286Z,55.30
2018-09-03T11:35:14.611Z,55.72
2018-09-03T11:36:18.869Z,55.69
2018-09-03T11:37:23.096Z,55.16
2018-09-03T11:38:27.409Z,55.30
2018-09-03T11:39:31.611Z,55.54
2018-09-03T11:40:35.894Z,55.81
2018-09-03T11:41:40.605Z,55.18
2018-09-03T11:42:45.534Z,55.19
2018-09-03T11:43:49.681Z,55.22
2018-09-03T11:44:53.961Z,54.41
2018-09-03T11:45:58.161Z,54.39
2018-09-03T11:47:02.369Z,54.96
2018-09-03T11:48:06.592Z,54.85
2018-09-03T11:49:10.810Z,54.61
2018-09-03T11:50:15.563Z,54.01
2018-09-03T11:51:19.745Z,54.48
2018-09-03T11:52:23.934Z,54.41
2018-09-03T11:53:28.156Z,54.85
2018-09-03T11:54:32.328Z,54.53
2018-09-03T11:55:36.509Z,54.45
2018-09-03T11:56:40.676Z,55.08
2018-09-03T11:57:45.131Z,54.73
2018-09-03T11:58:49.535Z,54.65
2018-09-03T11:59:53.718Z,55.17
2018-09-03T12:00:59.348Z,55.24
2018-09-03T12:02:04.677Z,54.73
2018-09-03T12:03:08.862Z,55.26
2018-09-03T12:04:13.219Z,55.00
2018-09-03T12:05:17.407Z,54.76
2018-09-03T12:06:21.634Z,55.21
2018-09-03T12:07:25.842Z,55.30
2018-09-03T12:08:30.038Z,55.25
2018-09-03T12:09:34.369Z,55.53
2018-09-03T12:10:38.650Z,55.17
2018-09-03T12:11:42.850Z,54.90
2018-09-03T12:12:47.081Z,55.31
2018-09-03T12:13:51.287Z,55.85
2018-09-03T12:14:58.247Z,55.87
2018-09-03T12:16:10.522Z,55.97
2018-09-03T12:17:14.758Z,55.54
2018-09-03T12:18:19.000Z,56.13
2018-09-03T12:19:25.485Z,56.13
2018-09-03T12:20:29.709Z,55.83
2018-09-03T12:21:33.878Z,55.61
2018-09-03T12:22:38.057Z,56.07
2018-09-03T12:23:43.334Z,55.39
2018-09-03T12:24:47.579Z,55.48
2018-09-03T12:25:51.831Z,55.84
2018-09-03T12:26:56.020Z,55.62
2018-09-03T12:28:00.254Z,55.50
2018-09-03T12:29:04.601Z,56.07
2018-09-03T12:30:09.200Z,56.02
2018-09-03T12:31:13.571Z,55.37
2018-09-03T12:32:18.034Z,56.06
2018-09-03T12:33:22.383Z,56.07
2018-09-03T12:34:26.888Z,55.91
2018-09-03T12:35:31.088Z,56.00
2018-09-03T12:36:35.278Z,56.29
2018-09-03T12:37:39.463Z,56.16
2018-09-03T12:38:43.883Z,55.89
2018-09-03T12:39:48.083Z,56.05
2018-09-03T12:40:52.578Z,56.24
2018-09-03T12:41:56.758Z,56.46
2018-09-03T12:43:01.019Z,56.02
2018-09-03T12:44:05.344Z,56.81
2018-09-03T12:45:09.735Z,56.37
2018-09-03T12:46:13.928Z,56.50
2018-09-03T12:47:18.343Z,56.76
2018-09-03T12:48:23.039Z,56.64
2018-09-03T12:49:27.166Z,56.81
2018-09-03T12:50:31.449Z,56.01
2018-09-03T12:51:35.602Z,56.52
2018-09-03T12:52:39.830Z,56.42
2018-09-03T12:53:44.019Z,56.56
2018-09-03T12:54:48.195Z,55.97
2018-09-03T12:55:52.404Z,55.69
2018-09-03T12:56:56.682Z,56.16
2018-09-03T12:58:00.943Z,55.86
2018-09-03T12:59:05.564Z,55.81
2018-09-03T13:00:13.337Z,56.29
2018-09-03T13:01:17.804Z,56.28
2018-09-03T13:02:22.557Z,55.65
2018-09-03T13:03:27.083Z,56.34
2018-09-03T13:04:31.401Z,56.20
2018-09-03T13:05:36.460Z,55.64
2018-09-03T13:06:40.777Z,55.68
2018-09-03T13:07:45.008Z,55.89
2018-09-03T13:08:49.198Z,55.19
2018-09-03T13:09:53.430Z,55.16
2018-09-03T13:10:58.685Z,55.30
2018-09-03T13:12:03.608Z,55.31
2018-09-03T13:13:07.866Z,55.50
2018-09-03T13:14:12.156Z,55.30
2018-09-03T13:15:16.619Z,54.96
2018-09-03T13:16:21.774Z,55.62
2018-09-03T13:17:26.149Z,55.33
2018-09-03T13:18:30.412Z,55.10
2018-09-03T13:19:35.191Z,54.80
2018-09-03T13:20:39.640Z,54.99
2018-09-03T13:21:43.905Z,54.87
2018-09-03T13:22:48.360Z,55.20
2018-09-03T13:23:52.812Z,54.74
2018-09-03T13:24:57.167Z,54.80
2018-09-03T13:26:01.370Z,54.83
2018-09-03T13:27:05.603Z,55.02
2018-09-03T13:28:09.849Z,55.37
2018-09-03T13:29:14.112Z,55.67
2018-09-03T13:30:18.335Z,55.09
2018-09-03T13:31:22.632Z,55.57
2018-09-03T13:32:26.833Z,54.91
2018-09-03T13:33:33.037Z,55.63
2018-09-03T13:34:38.122Z,55.36
2018-09-03T13:35:42.385Z,55.69
2018-09-03T13:36:46.742Z,55.52
2018-09-03T13:37:50.957Z,55.76
2018-09-03T13:38:55.735Z,55.82
2018-09-03T13:39:59.908Z,55.48
2018-09-03T13:41:04.130Z,55.73
2018-09-03T13:42:08.373Z,54.96
2018-09-03T13:43:12.906Z,55.65
2018-09-03T13:44:17.112Z,55.38
2018-09-03T13:45:21.377Z,55.01
2018-09-03T13:46:25.896Z,55.17
2018-09-03T13:47:30.124Z,54.96
2018-09-03T13:48:34.503Z,54.57
2018-09-03T13:49:39.424Z,55.08
2018-09-03T13:50:44.552Z,55.17